イースター島 の空港の天気 - METARとTAF

マタベリ国際空港 ( SCIP / IPC ) - チリ イースター島
飛行場実況気象(Metar)
観測時間01/22 23:00 EAST (01/23 04:00 UTC)
風向・風速東 7m/s
視程10km以上
天気現象
全天の4割程度の雲 雲底高度 700m
全天の8割程度の雲 雲底高度 7010m
気温24℃
湿度69%
気圧1022hPa
METARSCIP 230400Z 10013KT 9999 SCT023 BKN230 24/18 Q1022 NOSIG
過去の天気等 Google飛行場航空写真 Wunderground天気予報

過去48時間のMETAR

飛行場予報(TAF)
発表時間: 1/22 17:10 EAST (1/22 22:10 UTC)
予報対象時間: 22日19時 EAST ~ 23日19時 EAST
風向・風速東南東 8m/s
視程10km以上
全天の4割程度の雲 雲底高度 760m
22日21時 EAST ~ 22日23時 EAST に徐々に
風向・風速東 5m/s
少しの雲 雲底高度 610m
全天の4割程度の雲 雲底高度 1,520m
全天の4割程度の雲 雲底高度 7,620m
23日4時 EAST ~ 23日10時 EAST に一時的に
風向・風速東 8m/s
視程8,000m
天気現象弱いしゅう雨
全天の4割程度の雲 雲底高度 610m
全天の8割程度の雲 雲底高度 910m
23日11時 EAST ~ 23日13時 EAST に徐々に
風向・風速東南東 8m/s
全天の4割程度の雲 雲底高度 610m
全天の8割程度の雲 雲底高度 7,620m
23日14時 EAST ~ 23日17時 EAST に一時的に
視程7,000m
天気現象弱いしゅう雨
全天の8割程度の雲 雲底高度 610m
TAF SCIP 222210Z 2300/2400 12015KT 9999 SCT025 TN21/2312Z TX27/2320Z
BECMG 2302/2304 10010KT FEW020 SCT050 SCT250
TEMPO 2309/2315 08015KT 8000 -SHRA SCT020 BKN030
BECMG 2316/2318 11015KT SCT020 BKN250
TEMPO 2319/2322 7000 -SHRA BKN020